Time;durP1;ratioP1;P1;durP2;ratioP2;P2;SDS_P1;SDS_P2;PMS_P1;PMS_P2;Temp;Humidity;BMP_temperature;BMP_pressure;BME280_temperature;BME280_humidity;BME280_pressure;Samples;Min_cycle;Max_cycle;Signal;HPM_P1;HPM_P2
2023/10/24 00:00:48;;;;;;;5.28;3.33;;;;;;;13.50;100.00;100240.72;5203090;28;20107;-81
2023/10/24 00:03:18;;;;;;;5.22;3.55;;;;;;;13.42;100.00;100235.53;5185751;28;20033;-80
2023/10/24 00:05:51;;;;;;;4.10;2.83;;;;;;;13.36;100.00;100234.47;5187406;28;20017;-80
2023/10/24 00:08:21;;;;;;;14.82;3.67;;;;;;;13.36;100.00;100236.31;5205642;28;20017;-82
2023/10/24 00:11:00;;;;;;;4.95;2.97;;;;;;;13.46;100.00;100228.72;5203430;28;20034;-82
2023/10/24 00:13:31;;;;;;;8.55;3.65;;;;;;;13.40;100.00;100227.66;5201834;28;20022;-81
2023/10/24 00:16:01;;;;;;;9.57;4.03;;;;;;;13.43;100.00;100237.19;5202930;28;20021;-80
2023/10/24 00:18:32;;;;;;;6.65;4.03;;;;;;;13.39;100.00;100230.53;5202497;28;20071;-81
2023/10/24 00:21:02;;;;;;;8.63;3.70;;;;;;;13.41;100.00;100226.59;5201244;28;20429;-80
2023/10/24 00:23:33;;;;;;;11.50;3.95;;;;;;;13.47;100.00;100233.06;5201533;28;20029;-80
2023/10/24 00:26:03;;;;;;;7.25;3.95;;;;;;;13.44;100.00;100234.28;5200330;28;20035;-80
2023/10/24 00:28:34;;;;;;;10.10;4.38;;;;;;;13.35;100.00;100226.56;5203995;28;20029;-81
2023/10/24 00:31:07;;;;;;;7.43;4.53;;;;;;;13.32;100.00;100226.97;5197566;28;20044;-80
2023/10/24 00:33:37;;;;;;;10.85;4.88;;;;;;;13.36;100.00;100228.25;5186884;28;20033;-81
2023/10/24 00:36:08;;;;;;;11.60;4.80;;;;;;;13.48;100.00;100230.16;5202158;28;20026;-79
2023/10/24 00:38:38;;;;;;;7.95;5.07;;;;;;;13.46;100.00;100229.53;5200109;28;20125;-79
2023/10/24 00:41:09;;;;;;;6.78;4.15;;;;;;;13.37;100.00;100227.22;5201714;28;20034;-79
2023/10/24 00:43:40;;;;;;;10.63;4.60;;;;;;;13.27;100.00;100229.44;5203028;28;20142;-79
2023/10/24 00:46:11;;;;;;;9.77;4.30;;;;;;;13.36;100.00;100233.63;5201574;28;20030;-79
2023/10/24 00:48:42;;;;;;;8.27;3.88;;;;;;;13.17;100.00;100230.59;5202937;28;20056;-79
2023/10/24 00:51:12;;;;;;;8.55;3.25;;;;;;;13.26;100.00;100219.69;5203196;28;20163;-80
2023/10/24 00:53:43;;;;;;;5.78;2.92;;;;;;;13.15;100.00;100219.19;5187625;28;20026;-79
2023/10/24 00:56:14;;;;;;;2.90;2.10;;;;;;;13.21;100.00;100218.41;5200504;28;20279;-79
2023/10/24 00:58:45;;;;;;;3.72;2.00;;;;;;;13.12;100.00;100221.44;5201536;28;20025;-79
2023/10/24 01:01:15;;;;;;;2.70;2.03;;;;;;;12.98;100.00;100225.06;5185194;28;20033;-79
2023/10/24 01:03:48;;;;;;;5.00;2.45;;;;;;;13.04;100.00;100230.50;5202969;28;20026;-79
2023/10/24 01:06:18;;;;;;;3.03;1.75;;;;;;;12.92;100.00;100226.69;5201139;28;20036;-80
2023/10/24 01:08:49;;;;;;;3.75;1.90;;;;;;;12.99;100.00;100222.19;5203298;28;20234;-79
2023/10/24 01:11:21;;;;;;;2.83;2.20;;;;;;;13.01;100.00;100225.53;5201077;28;20492;-80
2023/10/24 01:13:52;;;;;;;4.80;2.60;;;;;;;12.96;100.00;100226.09;5202561;28;20037;-80
2023/10/24 01:16:23;;;;;;;5.40;2.88;;;;;;;13.03;100.00;100228.00;5202955;28;20032;-80
2023/10/24 01:19:03;;;;;;;5.78;3.03;;;;;;;12.80;100.00;100231.78;5193516;28;20040;-80
2023/10/24 01:21:46;;;;;;;5.25;2.85;;;;;;;12.82;100.00;100235.13;5199266;28;20029;-80
2023/10/24 01:24:17;;;;;;;4.65;3.08;;;;;;;12.87;100.00;100240.75;5200385;28;20022;-80
2023/10/24 01:26:48;;;;;;;3.97;2.60;;;;;;;12.81;100.00;100251.47;5202858;28;20025;-80
2023/10/24 01:29:21;;;;;;;8.10;2.97;;;;;;;12.85;100.00;100252.72;5185202;28;20044;-80
2023/10/24 01:31:51;;;;;;;4.95;2.67;;;;;;;12.96;100.00;100250.34;5200888;28;20021;-80
2023/10/24 01:34:22;;;;;;;6.60;3.08;;;;;;;12.97;100.00;100243.09;5200232;28;20037;-80
2023/10/24 01:36:52;;;;;;;7.68;2.80;;;;;;;13.07;100.00;100237.34;5203377;28;20037;-80
2023/10/24 01:39:23;;;;;;;4.80;2.70;;;;;;;12.88;100.00;100238.88;5202048;28;20026;-79
2023/10/24 01:41:54;;;;;;;5.70;3.25;;;;;;;12.96;100.00;100238.75;5202010;28;20444;-79
2023/10/24 01:44:24;;;;;;;5.10;2.97;;;;;;;12.91;100.00;100233.94;5201463;28;20034;-79
2023/10/24 01:46:55;;;;;;;5.18;2.83;;;;;;;12.89;100.00;100232.47;5193914;28;20029;-79
2023/10/24 01:49:25;;;;;;;4.55;2.92;;;;;;;13.01;100.00;100233.59;5200807;28;20056;-80
2023/10/24 01:51:56;;;;;;;4.43;2.90;;;;;;;12.90;100.00;100228.72;5181547;28;20120;-80
2023/10/24 01:54:27;;;;;;;5.13;2.83;;;;;;;12.96;100.00;100231.50;5202822;28;20021;-80
2023/10/24 01:56:57;;;;;;;5.80;2.97;;;;;;;13.00;100.00;100239.97;5203237;28;20051;-80
2023/10/24 01:59:28;;;;;;;5.82;2.78;;;;;;;13.01;100.00;100235.47;5202470;28;20037;-80
2023/10/24 02:01:58;;;;;;;7.15;3.33;;;;;;;12.79;100.00;100234.66;5201577;28;20028;-79
2023/10/24 02:04:29;;;;;;;7.03;3.50;;;;;;;12.96;100.00;100230.66;5202163;28;20396;-80
2023/10/24 02:07:00;;;;;;;6.75;3.13;;;;;;;13.00;100.00;100233.78;5202810;28;20022;-80
2023/10/24 02:09:31;;;;;;;4.50;2.58;;;;;;;13.11;100.00;100239.47;5201166;28;20037;-80
2023/10/24 02:12:02;;;;;;;10.27;3.53;;;;;;;13.05;100.00;100244.78;5181183;28;20079;-80
2023/10/24 02:14:33;;;;;;;5.72;2.78;;;;;;;12.83;100.00;100231.38;5200649;28;20025;-80
2023/10/24 02:17:04;;;;;;;7.22;3.13;;;;;;;12.89;100.00;100246.75;5203728;28;20452;-81
2023/10/24 02:19:34;;;;;;;6.85;2.92;;;;;;;12.95;100.00;100247.81;5202185;28;20184;-81
2023/10/24 02:22:05;;;;;;;5.80;2.75;;;;;;;13.06;100.00;100260.75;5200966;28;20055;-80
2023/10/24 02:24:36;;;;;;;5.80;3.15;;;;;;;12.98;100.00;100255.53;5198831;28;20025;-81
2023/10/24 02:27:06;;;;;;;6.00;3.35;;;;;;;13.08;100.00;100252.47;5187443;28;20022;-81
2023/10/24 02:29:43;;;;;;;8.10;3.65;;;;;;;13.06;100.00;100251.84;5199599;28;20514;-81
2023/10/24 02:32:14;;;;;;;7.10;3.95;;;;;;;13.11;100.00;100252.94;5200935;28;20017;-81
2023/10/24 02:34:49;;;;;;;6.07;3.83;;;;;;;13.08;100.00;100245.22;5186248;28;20021;-80
2023/10/24 02:37:19;;;;;;;6.40;3.83;;;;;;;13.04;100.00;100249.34;5202456;28;20400;-80
2023/10/24 02:39:50;;;;;;;5.45;3.38;;;;;;;13.09;100.00;100254.97;5202057;28;20025;-80
2023/10/24 02:42:20;;;;;;;7.78;3.67;;;;;;;13.13;100.00;100258.94;5201383;28;20443;-80
2023/10/24 02:44:51;;;;;;;9.00;3.90;;;;;;;13.06;100.00;100252.69;5198477;28;20022;-80
2023/10/24 02:47:22;;;;;;;4.80;3.05;;;;;;;13.08;100.00;100247.91;5197800;28;20029;-80
2023/10/24 02:49:54;;;;;;;5.78;3.20;;;;;;;13.08;100.00;100253.31;5193255;28;20025;-80
2023/10/24 02:52:25;;;;;;;6.10;3.63;;;;;;;13.08;100.00;100261.38;5197836;28;20376;-80
2023/10/24 02:54:56;;;;;;;9.95;4.55;;;;;;;13.07;100.00;100248.97;5201055;28;20037;-80
2023/10/24 02:57:27;;;;;;;6.68;3.75;;;;;;;13.07;100.00;100254.34;5194724;28;20049;-81
2023/10/24 02:59:57;;;;;;;6.65;4.00;;;;;;;13.08;100.00;100260.56;5199736;28;20027;-81
2023/10/24 03:02:28;;;;;;;5.70;3.65;;;;;;;13.08;100.00;100265.94;5191104;28;20017;-81
2023/10/24 03:04:58;;;;;;;5.85;3.28;;;;;;;13.02;100.00;100262.19;5197356;28;20104;-80
2023/10/24 03:07:29;;;;;;;7.10;3.58;;;;;;;13.04;100.00;100260.09;5195360;28;20358;-80
2023/10/24 03:10:00;;;;;;;7.20;3.95;;;;;;;13.00;100.00;100266.91;5195202;28;20021;-81
2023/10/24 03:12:30;;;;;;;6.35;3.15;;;;;;;12.80;100.00;100261.41;5196899;28;20021;-80
2023/10/24 03:15:01;;;;;;;5.35;3.13;;;;;;;12.95;100.00;100261.28;5197577;28;20028;-81
2023/10/24 03:17:31;;;;;;;5.97;3.70;;;;;;;12.90;100.00;100258.34;5201851;28;20017;-80
2023/10/24 03:20:02;;;;;;;4.75;3.35;;;;;;;12.90;100.00;100269.97;5194217;28;20025;-80
2023/10/24 03:22:33;;;;;;;4.95;3.10;;;;;;;12.97;100.00;100270.00;5193367;28;20069;-80
2023/10/24 03:25:04;;;;;;;5.22;3.40;;;;;;;13.00;100.00;100275.00;5198331;28;20037;-79
2023/10/24 03:27:34;;;;;;;4.55;2.70;;;;;;;13.07;100.00;100275.88;5205612;28;20021;-80
2023/10/24 03:30:05;;;;;;;3.97;2.78;;;;;;;13.06;100.00;100274.22;5201071;28;20030;-80
2023/10/24 03:32:36;;;;;;;6.10;3.08;;;;;;;13.07;100.00;100272.38;5203857;28;20476;-80
2023/10/24 03:35:07;;;;;;;4.50;2.67;;;;;;;13.02;100.00;100272.13;5206319;28;20108;-80
2023/10/24 03:37:37;;;;;;;4.80;3.00;;;;;;;13.01;100.00;100271.28;5202643;28;20059;-80
2023/10/24 03:40:09;;;;;;;5.38;2.95;;;;;;;13.05;100.00;100269.00;5201240;28;20636;-80
2023/10/24 03:42:40;;;;;;;4.65;3.10;;;;;;;13.03;100.00;100266.53;5196780;28;20400;-80
2023/10/24 03:45:10;;;;;;;5.05;2.83;;;;;;;12.94;100.00;100265.00;5203164;28;20028;-80
2023/10/24 03:47:41;;;;;;;5.57;3.08;;;;;;;12.98;100.00;100262.75;5207838;28;20071;-80
2023/10/24 03:50:11;;;;;;;6.35;3.33;;;;;;;12.92;100.00;100257.13;5207698;28;20083;-80
2023/10/24 03:52:42;;;;;;;5.25;3.17;;;;;;;13.00;100.00;100256.13;5207482;28;20488;-81
2023/10/24 03:55:13;;;;;;;4.88;3.10;;;;;;;12.91;100.00;100260.88;5181564;28;20025;-80
2023/10/24 03:57:43;;;;;;;5.03;3.28;;;;;;;13.01;100.00;100257.81;5203024;28;20087;-80
2023/10/24 04:00:14;;;;;;;3.58;2.72;;;;;;;13.02;100.00;100248.72;5203775;28;20301;-81
2023/10/24 04:02:46;;;;;;;6.22;3.20;;;;;;;13.04;100.00;100252.03;5196848;28;20026;-81
2023/10/24 04:05:16;;;;;;;4.90;2.92;;;;;;;13.05;100.00;100245.63;5200830;28;20060;-80
2023/10/24 04:07:47;;;;;;;4.85;2.75;;;;;;;13.05;100.00;100242.94;5182075;28;20064;-80
2023/10/24 04:10:18;;;;;;;5.75;3.47;;;;;;;13.04;100.00;100241.25;5203773;28;20036;-80
2023/10/24 04:12:48;;;;;;;4.93;3.30;;;;;;;12.98;100.00;100233.16;5201107;28;20021;-79
2023/10/24 04:15:18;;;;;;;7.28;3.38;;;;;;;13.00;100.00;100247.22;5203303;28;20026;-80
2023/10/24 04:17:49;;;;;;;6.07;3.70;;;;;;;13.04;100.00;100241.25;5196118;28;20488;-79
2023/10/24 04:20:19;;;;;;;4.25;3.00;;;;;;;13.03;100.00;100246.84;5198965;28;20500;-79
2023/10/24 04:22:52;;;;;;;9.05;4.43;;;;;;;12.93;100.00;100242.63;5197761;28;20030;-79
2023/10/24 04:25:22;;;;;;;6.30;3.58;;;;;;;12.99;100.00;100251.78;5184135;28;20018;-81
2023/10/24 04:27:53;;;;;;;7.25;4.00;;;;;;;12.87;100.00;100245.28;5187414;28;20037;-81
2023/10/24 04:30:25;;;;;;;6.40;4.00;;;;;;;12.87;100.00;100248.00;5203010;28;20365;-80
2023/10/24 04:32:56;;;;;;;5.38;3.65;;;;;;;12.99;100.00;100249.09;5197117;28;20029;-80
2023/10/24 04:35:27;;;;;;;7.43;4.45;;;;;;;12.98;100.00;100249.31;5199690;28;20108;-80
2023/10/24 04:37:57;;;;;;;8.88;4.47;;;;;;;12.92;100.00;100245.53;5200457;28;20067;-81
2023/10/24 04:40:28;;;;;;;7.72;4.53;;;;;;;13.00;100.00;100252.63;5204497;28;20440;-81
2023/10/24 04:42:58;;;;;;;9.02;5.47;;;;;;;13.00;100.00;100239.16;5203579;28;20025;-80
2023/10/24 04:45:31;;;;;;;9.05;4.68;;;;;;;12.95;100.00;100237.91;5204704;28;20108;-81
2023/10/24 04:48:03;;;;;;;12.38;5.10;;;;;;;12.94;100.00;100227.31;5201329;28;20017;-80
2023/10/24 04:50:39;;;;;;;9.43;4.93;;;;;;;13.04;100.00;100238.56;5180582;28;20434;-81
2023/10/24 04:53:09;;;;;;;9.05;4.88;;;;;;;12.97;100.00;100240.41;5203243;28;20022;-80
2023/10/24 04:55:40;;;;;;;9.45;5.25;;;;;;;12.90;100.00;100243.06;5202447;28;20035;-80
2023/10/24 04:58:11;;;;;;;11.23;5.05;;;;;;;12.98;100.00;100244.75;5199685;28;20013;-80
2023/10/24 05:00:42;;;;;;;8.82;5.32;;;;;;;12.98;100.00;100250.13;5193594;28;20025;-80
2023/10/24 05:03:12;;;;;;;8.40;5.47;;;;;;;13.03;100.00;100238.78;5201602;28;20034;-81
2023/10/24 05:05:43;;;;;;;9.30;5.45;;;;;;;13.04;100.00;100235.88;5192675;28;20013;-81
2023/10/24 05:08:13;;;;;;;11.32;5.72;;;;;;;13.04;100.00;100227.78;5201363;28;20033;-82
2023/10/24 05:10:44;;;;;;;13.25;5.72;;;;;;;12.99;100.00;100219.47;5199689;28;20026;-79
2023/10/24 05:13:14;;;;;;;8.88;5.60;;;;;;;12.98;100.00;100219.69;5203119;28;20029;-80
2023/10/24 05:15:46;;;;;;;8.85;4.97;;;;;;;13.00;100.00;100218.44;5206513;28;20025;-81
2023/10/24 05:18:16;;;;;;;14.52;6.93;;;;;;;12.78;100.00;100211.47;5201487;28;20043;-81
2023/10/24 05:20:47;;;;;;;12.38;5.72;;;;;;;12.89;100.00;100210.91;5204217;28;20049;-81
2023/10/24 05:23:17;;;;;;;12.43;6.30;;;;;;;12.87;100.00;100221.91;5204872;28;20029;-81
2023/10/24 05:25:50;;;;;;;9.88;6.03;;;;;;;12.87;100.00;100218.38;5184472;28;20383;-79
2023/10/24 05:28:20;;;;;;;12.20;6.50;;;;;;;12.89;100.00;100232.47;5199107;28;20537;-78
2023/10/24 05:30:51;;;;;;;13.90;6.75;;;;;;;12.86;100.00;100236.38;5200581;28;20113;-79
2023/10/24 05:33:21;;;;;;;10.57;6.50;;;;;;;12.86;100.00;100249.03;5200798;28;20019;-81
2023/10/24 05:35:52;;;;;;;11.43;7.18;;;;;;;12.91;100.00;100246.56;5199010;28;20125;-81
2023/10/24 05:38:23;;;;;;;13.88;6.38;;;;;;;12.89;100.00;100254.81;5203845;28;20476;-81
2023/10/24 05:40:53;;;;;;;10.88;6.47;;;;;;;12.87;100.00;100253.38;5201377;28;20098;-80
2023/10/24 05:43:24;;;;;;;13.43;6.93;;;;;;;12.91;100.00;100250.09;5194547;28;20554;-80
2023/10/24 05:45:54;;;;;;;12.80;7.20;;;;;;;12.94;100.00;100247.00;5202387;28;20104;-80
2023/10/24 05:48:25;;;;;;;11.90;6.30;;;;;;;12.77;100.00;100237.56;5200450;28;20048;-80
2023/10/24 05:50:55;;;;;;;13.45;6.70;;;;;;;12.82;100.00;100245.06;5198303;28;20048;-80
2023/10/24 05:53:26;;;;;;;19.77;7.35;;;;;;;12.85;100.00;100234.72;5202024;28;20079;-81
2023/10/24 05:55:56;;;;;;;13.65;6.60;;;;;;;12.98;100.00;100242.06;5198985;28;20026;-81
2023/10/24 05:58:27;;;;;;;14.77;7.53;;;;;;;12.90;100.00;100245.75;5200969;28;20131;-81
2023/10/24 06:00:57;;;;;;;16.98;7.68;;;;;;;12.87;100.00;100253.38;5204273;28;20039;-81
2023/10/24 06:03:28;;;;;;;13.40;7.32;;;;;;;12.81;100.00;100246.09;5202470;28;20476;-81
2023/10/24 06:05:58;;;;;;;13.98;7.60;;;;;;;12.75;100.00;100246.84;5201375;28;20104;-81
2023/10/24 06:08:29;;;;;;;15.75;7.25;;;;;;;12.81;100.00;100249.59;5200020;28;20507;-80
2023/10/24 06:11:01;;;;;;;17.60;7.95;;;;;;;12.70;100.00;100250.13;5200463;28;20017;-81
2023/10/24 06:13:32;;;;;;;14.38;7.60;;;;;;;12.59;100.00;100256.84;5197961;28;20076;-81
2023/10/24 06:16:10;;;;;;;17.45;7.70;;;;;;;12.57;100.00;100261.59;5196918;28;20022;-81
2023/10/24 06:18:41;;;;;;;13.80;7.45;;;;;;;12.44;100.00;100253.41;5194103;28;20034;-81
2023/10/24 06:21:12;;;;;;;21.38;8.30;;;;;;;12.56;100.00;100262.66;5202064;28;20028;-81
2023/10/24 06:23:43;;;;;;;16.98;7.60;;;;;;;12.59;100.00;100254.16;5192395;28;20109;-81
2023/10/24 06:26:16;;;;;;;14.18;7.10;;;;;;;12.58;100.00;100260.56;5197738;28;20017;-80
2023/10/24 06:28:47;;;;;;;12.50;7.15;;;;;;;12.48;100.00;100257.38;5196215;28;20017;-81
2023/10/24 06:31:18;;;;;;;14.65;7.20;;;;;;;12.53;100.00;100254.94;5198442;28;20507;-81
2023/10/24 06:33:48;;;;;;;15.80;7.75;;;;;;;12.55;100.00;100250.22;5199350;28;20033;-82
2023/10/24 06:36:21;;;;;;;15.23;7.70;;;;;;;12.59;100.00;100258.72;5202532;28;20473;-80
2023/10/24 06:38:51;;;;;;;16.52;7.55;;;;;;;12.58;100.00;100255.19;5198909;28;20025;-82
2023/10/24 06:41:22;;;;;;;16.63;7.20;;;;;;;12.61;100.00;100254.00;5173807;28;20018;-82
2023/10/24 06:43:53;;;;;;;15.05;6.65;;;;;;;12.65;100.00;100249.88;5198843;28;20037;-82
2023/10/24 06:46:24;;;;;;;19.40;7.55;;;;;;;12.67;100.00;100256.72;5199191;28;20093;-82
2023/10/24 06:48:54;;;;;;;15.82;6.70;;;;;;;12.65;100.00;100250.72;5198283;28;20487;-81
2023/10/24 06:51:25;;;;;;;18.17;6.70;;;;;;;12.67;100.00;100242.44;5196941;28;20040;-82
2023/10/24 06:53:55;;;;;;;18.85;7.15;;;;;;;12.69;100.00;100243.06;5195904;28;20099;-82
2023/10/24 06:56:26;;;;;;;15.85;7.25;;;;;;;12.66;100.00;100241.63;5177236;28;20435;-82
2023/10/24 06:58:56;;;;;;;14.05;6.78;;;;;;;12.78;100.00;100238.38;5205641;28;20021;-81
2023/10/24 07:01:27;;;;;;;11.52;6.57;;;;;;;12.78;100.00;100225.75;5189871;28;20396;-82
2023/10/24 07:03:57;;;;;;;12.95;6.45;;;;;;;12.87;100.00;100224.59;5202207;28;20060;-82
2023/10/24 07:06:28;;;;;;;13.65;5.95;;;;;;;12.94;100.00;100221.94;5203173;28;20100;-82
2023/10/24 07:09:00;;;;;;;15.05;6.22;;;;;;;13.06;100.00;100223.06;5204375;28;20026;-82
2023/10/24 07:11:30;;;;;;;13.63;6.68;;;;;;;13.14;100.00;100216.69;5195464;28;20116;-82
2023/10/24 07:14:01;;;;;;;11.13;5.43;;;;;;;13.23;100.00;100222.78;5204603;28;20403;-82
2023/10/24 07:16:31;;;;;;;18.25;5.85;;;;;;;13.31;100.00;100218.06;5207013;28;20021;-82
2023/10/24 07:19:02;;;;;;;14.23;6.13;;;;;;;13.35;100.00;100215.78;5186733;28;20017;-82
2023/10/24 07:21:32;;;;;;;10.15;5.43;;;;;;;13.41;100.00;100220.38;5203762;28;20018;-82
2023/10/24 07:24:03;;;;;;;10.40;5.40;;;;;;;13.47;100.00;100223.09;5186430;28;20030;-82
2023/10/24 07:26:33;;;;;;;12.75;5.30;;;;;;;13.59;100.00;100227.91;5202045;28;20022;-82
2023/10/24 07:29:04;;;;;;;11.68;5.78;;;;;;;13.88;100.00;100227.63;5196885;28;20022;-82
2023/10/24 07:31:34;;;;;;;9.70;4.57;;;;;;;14.20;100.00;100228.72;5203604;28;20124;-81
2023/10/24 07:34:05;;;;;;;10.75;4.35;;;;;;;14.56;100.00;100230.28;5207439;28;20367;-82
2023/10/24 07:36:35;;;;;;;7.78;4.05;;;;;;;15.01;100.00;100231.28;5204686;28;20021;-82
2023/10/24 07:39:06;;;;;;;9.80;3.67;;;;;;;15.05;100.00;100233.53;5206842;28;20021;-82
2023/10/24 07:41:37;;;;;;;10.00;3.88;;;;;;;15.46;100.00;100233.22;5204196;28;20026;-82
2023/10/24 07:44:07;;;;;;;9.82;3.92;;;;;;;15.63;100.00;100225.50;5204936;28;20017;-82
2023/10/24 07:46:38;;;;;;;5.60;3.63;;;;;;;15.41;100.00;100225.78;5203244;28;20037;-82
2023/10/24 07:49:09;;;;;;;7.22;3.80;;;;;;;15.15;100.00;100217.72;5207904;28;20021;-82
2023/10/24 07:51:39;;;;;;;13.55;4.32;;;;;;;14.84;100.00;100213.84;5205448;28;20542;-82
2023/10/24 07:54:11;;;;;;;9.10;4.13;;;;;;;15.00;100.00;100216.09;5204819;28;20053;-81
2023/10/24 07:56:42;;;;;;;7.43;4.10;;;;;;;15.54;100.00;100220.31;5202949;28;20465;-81
2023/10/24 07:59:12;;;;;;;6.00;3.70;;;;;;;15.59;100.00;100233.19;5203659;28;20029;-81
2023/10/24 08:01:43;;;;;;;8.88;3.90;;;;;;;15.71;100.00;100236.94;5191115;28;20073;-82
2023/10/24 08:04:13;;;;;;;8.52;4.00;;;;;;;15.71;100.00;100238.78;5191334;28;20030;-82
2023/10/24 08:06:44;;;;;;;7.00;4.30;;;;;;;15.50;100.00;100240.69;5200318;28;20026;-82
2023/10/24 08:09:14;;;;;;;14.13;4.97;;;;;;;15.08;100.00;100231.25;5204117;28;20029;-82
2023/10/24 08:11:45;;;;;;;6.13;3.60;;;;;;;14.91;100.00;100230.03;5199855;28;20064;-82
2023/10/24 08:14:15;;;;;;;8.23;4.25;;;;;;;14.82;100.00;100228.59;5169453;28;20018;-82
2023/10/24 08:16:46;;;;;;;6.72;4.47;;;;;;;14.72;100.00;100235.25;5197723;28;20026;-82
2023/10/24 08:19:16;;;;;;;9.18;4.72;;;;;;;14.62;100.00;100240.22;5204159;28;20032;-81
2023/10/24 08:21:47;;;;;;;9.32;5.03;;;;;;;14.62;100.00;100240.22;5202769;28;20032;-81
2023/10/24 08:24:18;;;;;;;10.38;4.82;;;;;;;14.73;100.00;100244.19;5198754;28;20018;-82
2023/10/24 08:26:49;;;;;;;11.05;5.22;;;;;;;14.67;100.00;100245.00;5184617;28;20365;-81
2023/10/24 08:29:19;;;;;;;9.65;4.50;;;;;;;14.76;100.00;100250.00;5203393;28;20101;-81
2023/10/24 08:31:50;;;;;;;8.82;5.22;;;;;;;14.69;100.00;100242.91;5202709;28;20940;-82
2023/10/24 08:34:20;;;;;;;8.63;4.75;;;;;;;14.62;100.00;100242.09;5207580;28;20017;-83
2023/10/24 08:36:51;;;;;;;7.72;5.30;;;;;;;14.39;100.00;100259.47;5206836;28;20028;-81
2023/10/24 08:39:23;;;;;;;11.30;6.70;;;;;;;14.42;100.00;100248.28;5204292;28;20640;-83
2023/10/24 08:41:57;;;;;;;10.55;6.05;;;;;;;14.30;100.00;100247.22;5200301;28;20021;-81
2023/10/24 08:44:28;;;;;;;9.60;5.45;;;;;;;14.29;100.00;100259.03;5202731;28;20025;-82
2023/10/24 08:47:00;;;;;;;14.70;6.30;;;;;;;14.21;100.00;100248.47;5203722;28;20092;-82
2023/10/24 08:49:32;;;;;;;15.25;6.45;;;;;;;14.27;100.00;100255.72;5203121;28;20029;-82
2023/10/24 08:52:04;;;;;;;13.63;6.05;;;;;;;14.25;100.00;100255.09;5204865;28;20025;-82
2023/10/24 08:54:34;;;;;;;14.75;6.70;;;;;;;14.35;100.00;100257.38;5203984;28;20039;-82
2023/10/24 08:57:05;;;;;;;9.38;6.05;;;;;;;14.32;100.00;100252.41;5203314;28;20396;-81
2023/10/24 08:59:39;;;;;;;12.15;5.93;;;;;;;14.33;100.00;100249.50;5203830;28;20221;-81
2023/10/24 09:02:11;;;;;;;12.07;6.88;;;;;;;14.19;100.00;100245.13;5203822;28;20025;-81
2023/10/24 09:04:41;;;;;;;12.15;5.70;;;;;;;14.30;100.00;100252.59;5204460;28;20033;-81
2023/10/24 09:07:12;;;;;;;11.98;5.65;;;;;;;14.24;100.00;100254.25;5202986;28;20486;-81
2023/10/24 09:09:43;;;;;;;15.15;6.43;;;;;;;14.19;100.00;100248.66;5202570;28;20029;-81
2023/10/24 09:12:15;;;;;;;11.43;6.03;;;;;;;14.20;100.00;100252.16;5194975;28;20018;-81
2023/10/24 09:14:47;;;;;;;9.82;6.00;;;;;;;14.29;100.00;100244.72;5205300;28;20051;-81
2023/10/24 09:17:18;;;;;;;10.38;5.70;;;;;;;14.24;100.00;100239.94;5203132;28;20029;-81
2023/10/24 09:19:48;;;;;;;14.18;6.30;;;;;;;14.24;100.00;100232.69;5200753;28;20029;-82
2023/10/24 09:22:19;;;;;;;11.75;5.93;;;;;;;14.17;100.00;100236.41;5204514;28;20078;-81
2023/10/24 09:24:50;;;;;;;9.75;5.65;;;;;;;14.22;100.00;100229.38;5177316;28;20086;-82
2023/10/24 09:27:24;;;;;;;13.10;6.15;;;;;;;14.08;100.00;100241.16;5190475;28;20014;-82
2023/10/24 09:29:54;;;;;;;10.77;6.18;;;;;;;14.17;100.00;100239.94;5201106;28;20022;-81
2023/10/24 09:32:25;;;;;;;14.65;5.63;;;;;;;14.22;100.00;100242.84;5203475;28;20071;-82
2023/10/24 09:35:03;;;;;;;9.27;6.00;;;;;;;14.18;100.00;100247.00;5203266;28;20043;-82
2023/10/24 09:37:37;;;;;;;12.55;6.80;;;;;;;14.03;100.00;100245.50;5184650;28;20026;-82
2023/10/24 09:40:08;;;;;;;14.13;5.97;;;;;;;14.14;100.00;100244.91;5212595;28;20049;-81
2023/10/24 09:42:42;;;;;;;12.20;7.13;;;;;;;14.12;100.00;100242.41;5195456;28;20064;-82
2023/10/24 09:45:13;;;;;;;13.50;7.20;;;;;;;14.11;100.00;100243.47;5202564;28;20022;-82
2023/10/24 09:47:46;;;;;;;12.43;6.75;;;;;;;13.94;100.00;100250.25;5190346;28;20018;-80
2023/10/24 09:50:18;;;;;;;14.40;7.75;;;;;;;13.83;100.00;100250.84;5203132;28;20503;-81
2023/10/24 09:52:49;;;;;;;11.70;7.15;;;;;;;13.79;100.00;100246.88;5192013;28;20026;-80
2023/10/24 09:55:20;;;;;;;14.77;7.68;;;;;;;13.71;100.00;100254.13;5202224;28;20017;-80
2023/10/24 09:57:51;;;;;;;11.05;7.47;;;;;;;13.61;100.00;100260.91;5203342;28;20014;-80
2023/10/24 10:00:22;;;;;;;14.30;7.43;;;;;;;13.71;100.00;100280.25;5202823;28;20415;-80
2023/10/24 10:02:58;;;;;;;18.38;7.53;;;;;;;13.78;100.00;100272.16;5203319;28;20032;-80
2023/10/24 10:05:30;;;;;;;12.77;7.72;;;;;;;13.86;100.00;100280.09;5196377;28;20033;-80
2023/10/24 10:08:04;;;;;;;11.00;7.35;;;;;;;13.85;100.00;100289.19;5200625;28;20048;-80
2023/10/24 10:10:37;;;;;;;11.75;6.78;;;;;;;13.64;100.00;100293.66;5201187;28;20033;-80
2023/10/24 10:13:10;;;;;;;14.68;7.43;;;;;;;13.60;100.00;100297.78;5200980;28;20021;-80
2023/10/24 10:15:47;;;;;;;11.70;6.20;;;;;;;13.69;100.00;100293.91;5200543;28;20059;-80
2023/10/24 10:18:45;;;;;;;10.88;6.97;;;;;;;13.66;100.00;100294.31;5195589;28;20164;-79
2023/10/24 10:21:21;;;;;;;10.02;5.30;;;;;;;13.68;100.00;100286.84;5197779;28;20014;-80
2023/10/24 10:24:05;;;;;;;8.85;5.18;;;;;;;13.57;100.00;100287.41;5196771;28;20076;-81
2023/10/24 10:26:43;;;;;;;9.48;4.28;;;;;;;13.54;100.00;100295.88;5194500;28;20488;-80
2023/10/24 10:29:14;;;;;;;7.35;4.05;;;;;;;13.61;100.00;100291.38;5198347;28;20029;-79
2023/10/24 10:32:07;;;;;;;5.88;3.58;;;;;;;13.50;100.00;100297.31;5198248;28;20029;-80
2023/10/24 10:34:38;;;;;;;4.97;3.33;;;;;;;13.57;100.00;100295.50;5195811;28;20041;-80
2023/10/24 10:37:09;;;;;;;6.50;2.92;;;;;;;13.53;100.00;100283.44;5200716;28;20112;-80
2023/10/24 10:39:39;;;;;;;4.40;2.72;;;;;;;13.51;100.00;100293.63;5203872;28;20034;-80
2023/10/24 10:42:47;;;;;;;5.95;2.90;;;;;;;13.46;100.00;100293.38;5193103;28;20333;-80
2023/10/24 10:45:23;;;;;;;6.40;2.60;;;;;;;13.47;100.00;100287.78;5194675;28;20392;-81
2023/10/24 10:47:57;;;;;;;6.35;2.88;;;;;;;13.45;100.00;100283.59;5199986;28;20037;-81
2023/10/24 10:50:31;;;;;;;7.28;2.85;;;;;;;13.44;100.00;100279.25;5202450;28;20025;-80
2023/10/24 10:53:13;;;;;;;5.13;3.20;;;;;;;13.44;100.00;100282.78;5194164;28;20056;-80
2023/10/24 10:55:52;;;;;;;6.07;3.58;;;;;;;13.36;100.00;100265.97;5201597;28;20052;-79
2023/10/24 10:58:33;;;;;;;5.57;3.08;;;;;;;13.32;100.00;100259.31;5201412;28;20517;-80
2023/10/24 11:01:20;;;;;;;9.68;3.85;;;;;;;13.37;100.00;100257.66;5200957;28;20400;-80
2023/10/24 11:03:51;;;;;;;6.70;3.28;;;;;;;13.36;100.00;100266.78;5188227;28;20063;-80
2023/10/24 11:06:26;;;;;;;9.27;3.17;;;;;;;13.35;100.00;100248.94;5203280;28;20099;-79
2023/10/24 11:09:14;;;;;;;4.13;2.50;;;;;;;13.36;100.00;100252.50;5203925;28;20021;-80
2023/10/24 11:11:45;;;;;;;3.80;2.50;;;;;;;13.36;100.00;100249.78;5203374;28;20053;-80
2023/10/24 11:14:19;;;;;;;6.07;2.50;;;;;;;13.31;100.00;100255.78;5200879;28;20021;-81
2023/10/24 11:16:50;;;;;;;3.60;2.50;;;;;;;13.36;100.00;100253.31;5200297;28;20047;-81
2023/10/24 11:19:22;;;;;;;3.45;2.33;;;;;;;13.41;100.00;100250.03;5203601;28;20017;-81
2023/10/24 11:21:54;;;;;;;5.45;2.47;;;;;;;13.42;100.00;100246.31;5197759;28;20091;-81
2023/10/24 11:24:25;;;;;;;3.88;2.47;;;;;;;13.46;100.00;100237.63;5200419;28;20310;-81
2023/10/24 11:26:56;;;;;;;5.57;2.60;;;;;;;13.37;100.00;100221.81;5202259;28;20056;-81
2023/10/24 11:29:26;;;;;;;4.43;2.50;;;;;;;13.40;100.00;100213.31;5195576;28;20040;-80
2023/10/24 11:31:58;;;;;;;5.53;3.03;;;;;;;13.57;100.00;100205.75;5195897;28;20392;-79
2023/10/24 11:34:29;;;;;;;6.07;2.67;;;;;;;13.76;100.00;100201.47;5202168;28;20461;-79